Time;durP1;ratioP1;P1;durP2;ratioP2;P2;SDS_P1;SDS_P2;PMS_P1;PMS_P2;Temp;Humidity;BMP_temperature;BMP_pressure;BME280_temperature;BME280_humidity;BME280_pressure;Samples;Min_cycle;Max_cycle;Signal;HPM_P1;HPM_P2
2023/09/15 00:00:59;;;;;;;2.63;2.13;;;16.90;96.70;;;;;;6235072;23;20435;-87
2023/09/15 00:04:06;;;;;;;2.97;2.27;;;16.70;96.80;;;;;;6239051;23;20451;-87
2023/09/15 00:17:34;;;;;;;3.07;2.30;;;16.90;97.40;;;;;;6157299;23;20400;-84
2023/09/15 00:20:40;;;;;;;;;;;;;;;;;;;;;
2023/09/15 00:23:58;;;;;;;3.60;2.50;;;16.80;97.00;;;;;;6249336;22;20435;-85
2023/09/15 00:26:48;;;;;;;3.10;2.47;;;16.90;97.20;;;;;;6125884;23;20901;-86
2023/09/15 00:30:15;;;;;;;;;;;;;;;;;;;;;
2023/09/15 00:33:03;;;;;;;4.43;2.50;;;17.00;96.80;;;;;;6263359;22;20432;-87
2023/09/15 00:36:18;;;;;;;2.70;1.83;;;16.90;96.60;;;;;;6233862;23;20500;-85
2023/09/15 00:39:24;;;;;;;1.80;1.70;;;16.80;97.10;;;;;;6230255;23;20439;-88
2023/09/15 00:42:23;;;;;;;2.27;2.07;;;16.60;97.30;;;;;;6236882;23;20502;-88
2023/09/15 00:45:23;;;;;;;3.30;2.30;;;16.70;97.40;;;;;;6236603;23;21055;-87
2023/09/15 00:48:51;;;;;;;4.23;2.27;;;16.80;97.20;;;;;;6080238;23;20472;-88
2023/09/15 00:52:03;;;;;;;2.03;1.83;;;16.80;97.00;;;;;;5994557;23;20422;-86
2023/09/15 00:55:35;;;;;;;1.87;1.60;;;16.80;96.80;;;;;;6012131;23;20562;-86
2023/09/15 00:58:56;;;;;;;4.87;4.67;;;16.80;96.60;;;;;;5971530;23;20487;-85
2023/09/15 01:02:06;;;;;;;3.00;2.27;;;16.70;96.60;;;;;;5876338;24;20423;-87
2023/09/15 01:05:10;;;;;;;5.77;2.20;;;16.60;96.70;;;;;;5921827;23;20434;-86
2023/09/15 01:08:29;;;;;;;1.97;1.87;;;16.40;97.00;;;;;;6025831;23;20473;-86
2023/09/15 01:11:31;;;;;;;5.00;2.30;;;16.20;97.50;;;;;;6014147;23;20453;-86
2023/09/15 01:14:27;;;;;;;2.40;1.90;;;16.40;98.00;;;;;;5949033;24;20472;-85
2023/09/15 01:17:54;;;;;;;3.10;2.53;;;16.30;97.90;;;;;;5927461;24;20406;-84
2023/09/15 01:21:03;;;;;;;2.60;2.20;;;16.30;98.10;;;;;;5937767;24;20425;-86
2023/09/15 01:24:44;;;;;;;3.53;2.50;;;16.30;98.10;;;;;;5969335;24;20464;-87
2023/09/15 01:28:14;;;;;;;2.17;1.97;;;16.40;98.10;;;;;;6124277;23;20503;-87
2023/09/15 01:31:34;;;;;;;;;;;;;;;;;;;;;
2023/09/15 01:34:46;;;;;;;2.40;2.20;;;16.30;98.10;;;;;;6001367;23;20503;-85
2023/09/15 01:45:33;;;;;;;;;;;;;;;;;;;;;
2023/09/15 01:56:18;;;;;;;2.03;1.90;;;16.40;97.70;;;;;;6218585;23;20455;-87
2023/09/15 01:59:32;;;;;;;2.77;2.23;;;16.30;97.90;;;;;;6185605;23;20408;-86
2023/09/15 02:05:47;;;;;;;2.57;2.37;;;16.10;97.90;;;;;;6147784;23;20520;-86
2023/09/15 02:16:28;;;;;;;5.87;2.30;;;15.90;98.10;;;;;;6175794;23;20448;-87
2023/09/15 02:19:42;;;;;;;3.23;2.57;;;15.70;98.60;;;;;;6186862;23;20428;-85
2023/09/15 02:25:39;;;;;;;2.40;2.20;;;15.80;99.10;;;;;;6189159;23;20465;-86
2023/09/15 02:28:36;;;;;;;2.57;2.37;;;15.80;99.00;;;;;;6201861;23;20436;-88
2023/09/15 02:32:00;;;;;;;2.20;1.87;;;15.80;99.00;;;;;;6177677;23;20429;-86
2023/09/15 02:34:48;;;;;;;3.17;2.23;;;15.70;99.00;;;;;;6054936;23;20549;-86
2023/09/15 02:38:04;;;;;;;3.10;2.50;;;15.70;99.40;;;;;;6156478;23;20402;-87
2023/09/15 02:40:54;;;;;;;2.73;1.97;;;15.60;99.60;;;;;;6156325;23;20505;-87
2023/09/15 02:46:51;;;;;;;3.60;2.10;;;15.60;99.20;;;;;;6108173;23;20412;-88
2023/09/15 02:54:06;;;;;;;;;;;;;;;;;;;;;
2023/09/15 02:57:29;;;;;;;3.87;2.37;;;15.50;99.20;;;;;;6099025;23;20476;-87
2023/09/15 03:00:41;;;;;;;4.00;2.30;;;15.30;99.10;;;;;;6188087;23;20394;-91
2023/09/15 03:06:16;;;;;;;2.93;2.10;;;15.50;98.90;;;;;;6183286;23;20486;-88
2023/09/15 03:09:39;;;;;;;2.60;2.20;;;15.40;98.80;;;;;;6181991;23;20489;-88
2023/09/15 03:12:55;;;;;;;3.37;1.90;;;15.30;99.30;;;;;;6093438;23;20499;-86
2023/09/15 03:16:32;;;;;;;2.90;2.60;;;15.30;99.70;;;;;;6074472;23;20485;-85
2023/09/15 03:19:43;;;;;;;4.77;2.30;;;15.30;99.50;;;;;;6100259;23;20400;-86
2023/09/15 03:26:03;;;;;;;2.83;1.97;;;15.20;99.50;;;;;;6167219;23;20450;-85
2023/09/15 03:28:59;;;;;;;2.07;1.87;;;15.20;99.60;;;;;;6181798;23;20434;-89
2023/09/15 03:31:58;;;;;;;2.63;1.80;;;15.30;99.80;;;;;;6180727;23;20399;-87
2023/09/15 03:35:20;;;;;;;6.33;2.40;;;15.20;99.90;;;;;;6180724;23;20461;-86
2023/09/15 03:38:47;;;;;;;3.67;2.17;;;15.20;99.90;;;;;;6068092;23;20737;-86
2023/09/15 03:45:29;;;;;;;3.20;2.07;;;15.30;99.70;;;;;;5952711;24;20456;-85
2023/09/15 03:48:37;;;;;;;;;;;;;;;;;;;;;
2023/09/15 03:55:21;;;;;;;5.37;2.33;;;14.90;99.90;;;;;;6071030;23;20468;-87
2023/09/15 03:58:48;;;;;;;3.07;2.53;;;14.90;99.90;;;;;;6028031;23;20463;-86
2023/09/15 04:01:47;;;;;;;2.90;2.30;;;15.00;99.90;;;;;;5972503;23;20786;-87
2023/09/15 04:10:57;;;;;;;5.20;2.60;;;15.10;99.90;;;;;;6110830;23;20420;-86
2023/09/15 04:13:57;;;;;;;6.30;2.67;;;14.90;99.90;;;;;;6087324;23;20469;-88
2023/09/15 04:16:54;;;;;;;3.47;2.63;;;14.90;99.90;;;;;;6109604;23;20409;-87
2023/09/15 04:20:08;;;;;;;5.67;3.30;;;14.90;99.90;;;;;;6079958;23;20400;-84
2023/09/15 04:23:31;;;;;;;6.77;3.57;;;14.90;99.90;;;;;;6077610;23;20472;-85
2023/09/15 04:30:09;;;;;;;7.90;3.23;;;14.80;99.90;;;;;;6084485;23;20460;-85
2023/09/15 04:33:07;;;;;;;6.73;3.20;;;14.80;99.90;;;;;;6077354;23;20423;-86
2023/09/15 04:35:53;;;;;;;3.90;2.23;;;14.80;99.90;;;;;;6046842;23;20478;-87
2023/09/15 04:38:41;;;;;;;4.40;2.73;;;14.80;99.90;;;;;;6078660;23;20439;-86
2023/09/15 04:42:06;;;;;;;6.47;2.50;;;14.80;99.90;;;;;;6079906;23;20383;-87
2023/09/15 04:45:32;;;;;;;3.30;2.07;;;14.80;99.90;;;;;;6077527;23;20424;-86
2023/09/15 04:48:30;;;;;;;4.53;2.40;;;15.00;99.90;;;;;;6176886;23;20820;-86
2023/09/15 04:51:56;;;;;;;3.13;2.60;;;14.80;99.90;;;;;;6102143;23;20404;-87
2023/09/15 04:55:42;;;;;;;4.80;2.80;;;15.00;99.90;;;;;;6093167;23;20448;-86
2023/09/15 05:02:34;;;;;;;;;;;;;;;;;;;;;
2023/09/15 05:05:39;;;;;;;7.20;3.30;;;14.80;99.90;;;;;;6131146;23;20402;-86
2023/09/15 05:09:32;;;;;;;7.20;3.60;;;14.80;99.90;;;;;;6110965;23;20398;-88
2023/09/15 05:12:33;;;;;;;4.43;3.20;;;14.80;99.90;;;;;;6107203;23;20975;-87
2023/09/15 05:15:46;;;;;;;4.37;3.23;;;14.70;99.90;;;;;;6103341;23;20462;-86
2023/09/15 05:18:54;;;;;;;4.33;2.80;;;14.80;99.90;;;;;;6109806;23;20411;-85
2023/09/15 05:25:53;;;;;;;6.73;3.80;;;14.60;99.90;;;;;;6118357;23;20406;-87
2023/09/15 05:36:40;;;;;;;4.03;2.70;;;14.90;99.90;;;;;;6193059;23;20432;-86
2023/09/15 05:40:11;;;;;;;6.70;3.00;;;15.00;99.90;;;;;;6202025;23;20401;-87
2023/09/15 05:43:24;;;;;;;6.53;2.67;;;14.80;99.90;;;;;;6056262;23;20449;-86
2023/09/15 05:46:53;;;;;;;6.50;3.00;;;14.90;99.90;;;;;;6085233;23;20423;-87
2023/09/15 05:53:41;;;;;;;4.90;2.90;;;15.00;99.90;;;;;;6016752;23;20420;-86
2023/09/15 05:56:56;;;;;;;3.50;2.27;;;15.10;99.90;;;;;;6002183;23;20481;-87
2023/09/15 06:04:33;;;;;;;6.60;2.63;;;15.20;99.90;;;;;;5965124;24;20769;-87
2023/09/15 06:11:03;;;;;;;;;;;;;;;;;;;;;
2023/09/15 06:43:24;;;;;;;;;;;;;;;;;;;;;
2023/09/15 06:50:08;;;;;;;3.67;2.10;;;22.20;68.90;;;;;;6093496;23;20386;-87
2023/09/15 07:14:40;;;;;;;2.80;2.37;;;18.20;90.10;;;;;;6121301;23;20408;-86
2023/09/15 07:21:23;;;;;;;3.53;2.00;;;24.30;74.00;;;;;;6181491;23;20370;-88
2023/09/15 07:32:05;;;;;;;3.20;2.50;;;27.80;56.00;;;;;;5983595;24;20412;-86
2023/09/15 07:35:39;;;;;;;2.83;2.53;;;28.30;55.00;;;;;;5973943;24;20497;-87
2023/09/15 07:42:48;;;;;;;3.70;2.10;;;28.40;53.30;;;;;;5922774;24;20387;-84
2023/09/15 07:46:06;;;;;;;2.33;2.13;;;28.90;52.60;;;;;;5894871;24;20456;-86
2023/09/15 07:49:34;;;;;;;;;;;;;;;;;;;;;
2023/09/15 07:52:51;;;;;;;2.80;1.60;;;28.20;51.90;;;;;;5932748;24;20912;-85
2023/09/15 08:00:25;;;;;;;4.90;1.80;;;28.00;53.00;;;;;;5873111;24;20495;-86
2023/09/15 08:06:57;;;;;;;3.20;2.20;;;29.10;51.10;;;;;;5830871;24;20446;-86
2023/09/15 08:10:23;;;;;;;2.00;1.80;;;29.10;50.80;;;;;;5936667;24;20411;-87
2023/09/15 08:14:00;;;;;;;2.40;1.87;;;29.60;49.90;;;;;;5938030;24;20442;-85
2023/09/15 08:17:02;;;;;;;2.10;1.90;;;29.40;50.10;;;;;;5935253;24;20672;-86
2023/09/15 08:19:59;;;;;;;2.67;2.20;;;29.30;50.10;;;;;;5935890;24;20530;-86
2023/09/15 08:28:55;;;;;;;3.73;2.00;;;28.00;50.30;;;;;;6169546;23;20471;-87
2023/09/15 08:32:27;;;;;;;4.00;1.90;;;25.00;56.30;;;;;;6058230;23;20400;-88
2023/09/15 08:35:51;;;;;;;2.73;1.93;;;22.90;61.20;;;;;;5980289;24;20403;-85
2023/09/15 08:58:02;;;;;;;2.73;2.10;;;19.60;84.40;;;;;;6175175;23;20430;-86
2023/09/15 09:51:59;;;;;;;;;;;;;;;;;;;;;
2023/09/15 09:59:35;;;;;;;3.37;1.77;;;28.10;56.10;;;;;;6241243;23;20354;-87
2023/09/15 10:02:35;;;;;;;;;;;;;;;;;;;;;
2023/09/15 10:05:33;;;;;;;2.73;1.90;;;28.50;53.60;;;;;;6233764;23;20504;-85
2023/09/15 10:09:02;;;;;;;;;;;;;;;;;;;;;
2023/09/15 10:16:33;;;;;;;1.83;1.70;;;28.50;51.90;;;;;;6210334;23;20426;-89
2023/09/15 10:19:42;;;;;;;2.80;2.20;;;29.10;50.40;;;;;;6186396;23;20414;-88
2023/09/15 10:29:46;;;;;;;4.40;2.10;;;29.10;50.30;;;;;;6242152;23;20384;-89
2023/09/15 10:32:53;;;;;;;3.00;1.80;;;29.20;50.30;;;;;;6196951;23;20453;-86
2023/09/15 10:36:17;;;;;;;2.40;1.83;;;28.60;50.40;;;;;;6167840;23;20467;-86
2023/09/15 10:43:04;;;;;;;2.70;2.50;;;28.20;51.60;;;;;;6197697;23;20508;-86
2023/09/15 10:50:30;;;;;;;3.00;2.20;;;27.40;52.70;;;;;;5882637;24;20399;-86
2023/09/15 10:56:56;;;;;;;2.23;1.83;;;28.40;50.50;;;;;;6054000;23;20508;-85
2023/09/15 11:00:50;;;;;;;;;;;;;;;;;;;;;
2023/09/15 11:04:25;;;;;;;3.17;2.23;;;28.90;50.60;;;;;;6045005;23;20482;-88
2023/09/15 11:07:32;;;;;;;;;;;;;;;;;;;;;
2023/09/15 11:11:09;;;;;;;;;;;;;;;;;;;;;
2023/09/15 11:14:06;;;;;;;1.90;1.70;;;29.30;49.60;;;;;;6026707;23;20492;-87
2023/09/15 11:17:22;;;;;;;1.93;1.80;;;29.90;48.00;;;;;;6017762;23;20431;-87
2023/09/15 11:31:50;;;;;;;1.50;1.30;;;28.60;49.40;;;;;;6199615;23;20373;-86
2023/09/15 11:35:42;;;;;;;;;;;;;;;;;;;;;
2023/09/15 11:43:02;;;;;;;2.00;1.60;;;29.20;48.10;;;;;;5936531;24;20479;-87
2023/09/15 12:07:45;;;;;;;1.40;1.30;;;29.70;44.80;;;;;;6206678;23;20403;-87
2023/09/15 12:30:19;;;;;;;1.97;1.27;;;29.30;45.00;;;;;;6273404;22;20459;-85
2023/09/15 12:33:33;;;;;;;1.93;1.73;;;29.50;44.70;;;;;;6222717;23;20438;-86
2023/09/15 12:44:04;;;;;;;1.30;1.20;;;29.20;46.40;;;;;;6280521;22;20406;-89
2023/09/15 12:50:41;;;;;;;1.90;1.40;;;29.90;44.00;;;;;;6225181;23;20378;-86
2023/09/15 12:56:34;;;;;;;1.53;1.40;;;29.10;45.30;;;;;;6108235;23;20484;-85
2023/09/15 13:11:24;;;;;;;1.47;1.37;;;29.70;44.80;;;;;;6051576;23;20497;-85
2023/09/15 13:18:21;;;;;;;1.57;1.47;;;30.40;44.30;;;;;;5965661;24;20983;-87
2023/09/15 13:21:33;;;;;;;2.10;1.50;;;30.30;44.10;;;;;;5982304;23;20500;-86
2023/09/15 13:24:38;;;;;;;2.63;1.70;;;29.30;44.90;;;;;;6016782;23;20446;-87
2023/09/15 13:48:37;;;;;;;;;;;;;;;;;;;;;
2023/09/15 13:52:01;;;;;;;1.53;1.43;;;29.60;45.50;;;;;;6160988;23;20481;-86
2023/09/15 13:55:29;;;;;;;3.20;1.90;;;29.10;46.60;;;;;;6000207;23;20925;-87
2023/09/15 14:02:54;;;;;;;3.93;1.60;;;29.10;46.70;;;;;;5960976;24;20401;-86
2023/09/15 14:09:57;;;;;;;3.03;2.20;;;28.90;47.00;;;;;;5981566;23;20400;-88
2023/09/15 14:18:34;;;;;;;2.43;1.83;;;28.90;47.40;;;;;;6291191;22;20498;-87
2023/09/15 14:22:32;;;;;;;1.80;1.70;;;28.70;47.70;;;;;;6280412;22;20407;-86
2023/09/15 14:28:30;;;;;;;2.43;2.03;;;28.50;48.20;;;;;;6288951;22;20512;-88
2023/09/15 14:31:58;;;;;;;3.03;2.10;;;28.80;47.60;;;;;;6217897;22;20414;-86
2023/09/15 14:35:24;;;;;;;3.53;2.00;;;28.80;47.50;;;;;;6291295;22;20418;-86
2023/09/15 14:38:59;;;;;;;2.40;1.93;;;28.50;48.40;;;;;;6190189;22;20406;-85
2023/09/15 14:42:17;;;;;;;2.20;1.87;;;28.40;49.70;;;;;;6236816;22;20400;-85
2023/09/15 14:49:44;;;;;;;4.53;1.93;;;28.20;49.50;;;;;;6133887;23;20384;-86
2023/09/15 15:00:12;;;;;;;2.20;2.10;;;28.40;49.30;;;;;;6164692;23;20426;-84
2023/09/15 15:03:31;;;;;;;3.03;2.20;;;28.50;49.40;;;;;;6140463;23;20405;-85
2023/09/15 15:13:49;;;;;;;;;;;;;;;;;;;;;
2023/09/15 15:16:49;;;;;;;2.00;1.80;;;28.50;49.10;;;;;;6083092;23;20475;-85
2023/09/15 15:19:45;;;;;;;2.50;1.90;;;28.30;49.20;;;;;;6089056;23;20463;-85
2023/09/15 15:23:04;;;;;;;2.30;1.73;;;27.90;50.40;;;;;;6080275;23;20389;-86
2023/09/15 15:29:55;;;;;;;2.10;1.73;;;27.70;52.00;;;;;;6049167;23;20406;-86
2023/09/15 15:33:24;;;;;;;1.60;1.50;;;27.60;51.70;;;;;;6061489;23;20416;-85
2023/09/15 15:36:54;;;;;;;;;;;;;;;;;;;;;
2023/09/15 15:43:54;;;;;;;2.63;2.43;;;27.50;52.70;;;;;;6064929;23;20430;-86
2023/09/15 15:46:58;;;;;;;3.30;2.20;;;27.70;52.00;;;;;;6123525;23;20452;-84
2023/09/15 15:49:56;;;;;;;2.40;2.10;;;27.80;52.00;;;;;;6123578;23;20426;-85
2023/09/15 16:00:36;;;;;;;;;;;;;;;;;;;;;
2023/09/15 16:04:17;;;;;;;;;;;;;;;;;;;;;
2023/09/15 16:11:18;;;;;;;;;;;;;;;;;;;;;
2023/09/15 16:21:35;;;;;;;2.20;2.00;;;26.70;53.20;;;;;;6291793;22;20391;-87
2023/09/15 16:29:07;;;;;;;;;;;;;;;;;;;;;
2023/09/15 16:36:10;;;;;;;2.70;1.90;;;26.80;54.30;;;;;;6259857;22;20485;-86
2023/09/15 16:39:27;;;;;;;4.60;2.63;;;26.70;54.20;;;;;;6234855;23;20416;-86
2023/09/15 16:42:39;;;;;;;2.70;1.77;;;26.40;55.10;;;;;;6236600;23;20432;-84
2023/09/15 16:46:01;;;;;;;2.50;2.30;;;26.40;55.50;;;;;;6203494;23;20436;-85
2023/09/15 16:49:12;;;;;;;2.60;1.90;;;26.30;55.90;;;;;;6108407;23;20440;-86
2023/09/15 16:52:35;;;;;;;2.03;1.83;;;26.20;56.60;;;;;;6102307;23;20514;-87
2023/09/15 16:55:46;;;;;;;2.13;1.93;;;26.10;56.80;;;;;;6210245;23;20397;-87
2023/09/15 17:06:49;;;;;;;2.83;2.10;;;26.00;58.00;;;;;;6231799;23;20455;-85
2023/09/15 17:10:03;;;;;;;;;;;;;;;;;;;;;
2023/09/15 17:13:16;;;;;;;2.47;2.27;;;25.90;59.00;;;;;;6108395;23;20444;-85
2023/09/15 17:16:33;;;;;;;2.60;2.10;;;25.90;59.20;;;;;;6077705;23;20491;-86
2023/09/15 17:20:01;;;;;;;2.27;1.90;;;25.90;59.30;;;;;;6092883;23;20461;-86
2023/09/15 17:27:24;;;;;;;2.13;2.03;;;25.70;60.20;;;;;;6063025;23;20455;-85
2023/09/15 17:30:25;;;;;;;2.50;2.30;;;25.60;61.40;;;;;;6064278;23;20421;-86
2023/09/15 18:03:04;;;;;;;2.73;2.53;;;24.60;69.50;;;;;;6111517;23;20364;-85
2023/09/15 18:06:17;;;;;;;;;;;;;;;;;;;;;
2023/09/15 18:09:37;;;;;;;;;;;;;;;;;;;;;
2023/09/15 18:15:50;;;;;;;4.83;3.33;;;24.60;71.10;;;;;;6126119;23;20403;-87
2023/09/15 18:19:23;;;;;;;2.67;2.47;;;24.60;71.80;;;;;;6188392;23;20426;-85
2023/09/15 18:22:28;;;;;;;3.43;3.13;;;24.50;72.50;;;;;;6096214;23;20436;-85
2023/09/15 18:25:33;;;;;;;;;;;;;;;;;;;;;
2023/09/15 18:29:17;;;;;;;2.90;2.60;;;24.50;73.50;;;;;;6117987;23;21358;-85
2023/09/15 18:32:31;;;;;;;3.40;3.10;;;24.50;73.90;;;;;;6234067;23;20402;-86
2023/09/15 18:36:06;;;;;;;;;;;;;;;;;;;;;
2023/09/15 18:42:16;;;;;;;4.40;3.30;;;24.00;76.40;;;;;;6134836;23;20494;-87
2023/09/15 18:48:37;;;;;;;12.30;11.20;;;23.90;77.90;;;;;;6187823;23;20455;-86
2023/09/15 18:51:59;;;;;;;6.10;5.50;;;23.90;78.90;;;;;;6163930;23;20402;-86
2023/09/15 18:54:47;;;;;;;20.97;19.33;;;24.00;79.20;;;;;;6171848;23;20448;-84
2023/09/15 18:57:49;;;;;;;3.20;2.90;;;24.10;79.10;;;;;;6088311;23;20408;-86
2023/09/15 19:01:22;;;;;;;3.67;3.37;;;24.10;78.90;;;;;;6056186;23;20415;-85
2023/09/15 19:04:42;;;;;;;3.77;3.10;;;23.90;80.80;;;;;;6102868;23;20421;-86
2023/09/15 19:07:40;;;;;;;4.20;3.43;;;23.80;81.40;;;;;;6082505;23;20857;-87
2023/09/15 19:10:35;;;;;;;4.60;3.83;;;23.70;81.90;;;;;;6082026;23;20469;-85
2023/09/15 19:13:47;;;;;;;3.50;2.97;;;23.70;82.60;;;;;;6095782;23;20427;-85
2023/09/15 19:16:57;;;;;;;2.90;2.60;;;23.40;83.10;;;;;;6083533;23;20408;-86
2023/09/15 19:19:57;;;;;;;4.73;3.77;;;23.30;84.00;;;;;;6067085;23;20818;-85
2023/09/15 19:23:03;;;;;;;4.30;3.53;;;23.30;85.30;;;;;;6069416;23;20786;-86
2023/09/15 19:26:11;;;;;;;2.90;2.70;;;23.10;85.80;;;;;;6057679;23;20444;-83
2023/09/15 19:29:42;;;;;;;4.50;3.50;;;23.00;85.90;;;;;;6057229;23;20410;-85
2023/09/15 19:35:47;;;;;;;3.37;2.90;;;22.80;87.00;;;;;;6099710;23;20424;-87
2023/09/15 19:38:55;;;;;;;3.40;3.10;;;22.60;88.40;;;;;;6124581;23;20416;-83
2023/09/15 19:41:47;;;;;;;3.80;3.37;;;22.70;88.60;;;;;;6117418;23;20506;-85
2023/09/15 19:44:33;;;;;;;3.73;3.00;;;22.60;89.00;;;;;;6135692;23;20450;-86
2023/09/15 19:47:30;;;;;;;3.33;3.07;;;22.50;89.40;;;;;;6107245;23;20750;-86
2023/09/15 19:50:14;;;;;;;4.77;3.23;;;22.50;89.80;;;;;;6080508;23;20420;-87
2023/09/15 19:53:07;;;;;;;3.50;3.17;;;22.50;90.10;;;;;;6114635;23;20878;-86
2023/09/15 19:56:06;;;;;;;3.50;3.20;;;22.50;90.10;;;;;;6043280;23;20418;-86
2023/09/15 19:59:19;;;;;;;3.40;3.10;;;22.50;90.20;;;;;;6030456;23;20481;-88
2023/09/15 20:02:21;;;;;;;3.37;2.90;;;22.50;90.30;;;;;;6032519;23;20410;-86
2023/09/15 20:05:06;;;;;;;6.27;3.43;;;22.50;90.60;;;;;;6130583;23;20455;-87
2023/09/15 20:08:03;;;;;;;3.70;3.40;;;22.50;90.60;;;;;;6132740;23;20792;-85
2023/09/15 20:11:08;;;;;;;3.37;3.07;;;22.40;90.60;;;;;;6051140;23;20429;-87
2023/09/15 20:14:04;;;;;;;4.60;3.37;;;22.30;90.70;;;;;;6049545;23;20440;-88
2023/09/15 20:16:47;;;;;;;3.57;3.17;;;22.30;90.80;;;;;;6080639;23;20456;-87
2023/09/15 20:19:44;;;;;;;4.67;3.50;;;22.20;91.00;;;;;;6106056;23;20428;-86
2023/09/15 20:22:19;;;;;;;4.03;2.90;;;22.10;91.20;;;;;;6085092;23;20447;-85
2023/09/15 20:25:11;;;;;;;3.30;3.00;;;22.20;91.40;;;;;;6088933;23;20520;-86
2023/09/15 20:28:05;;;;;;;3.37;3.07;;;22.40;91.20;;;;;;6117259;23;20436;-85
2023/09/15 20:31:25;;;;;;;;;;;;;;;;;;;;;
2023/09/15 20:37:52;;;;;;;3.43;3.13;;;22.20;91.00;;;;;;6114631;23;20484;-87
2023/09/15 20:40:49;;;;;;;3.60;3.30;;;22.10;91.40;;;;;;6088075;23;20424;-86
2023/09/15 20:43:55;;;;;;;3.27;3.00;;;22.00;91.40;;;;;;6088452;23;20460;-85
2023/09/15 20:47:14;;;;;;;5.30;3.37;;;22.20;91.20;;;;;;6080137;23;20471;-87
2023/09/15 20:49:52;;;;;;;3.90;3.37;;;22.10;91.40;;;;;;6205355;23;20408;-89
2023/09/15 20:52:27;;;;;;;3.60;3.30;;;22.10;91.40;;;;;;6216298;22;20409;-88
2023/09/15 20:59:25;;;;;;;;;;;;;;;;;;;;;
2023/09/15 21:06:39;;;;;;;3.83;3.43;;;22.00;92.20;;;;;;6088609;23;20561;-88
2023/09/15 21:09:30;;;;;;;3.33;3.03;;;22.00;92.40;;;;;;6061054;23;20484;-85
2023/09/15 21:12:40;;;;;;;;;;;;;;;;;;;;;
2023/09/15 21:16:04;;;;;;;;;;;;;;;;;;;;;
2023/09/15 21:18:34;;;;;;;3.70;3.40;;;22.00;92.70;;;;;;6074622;23;20421;-85
2023/09/15 21:21:16;;;;;;;3.57;3.13;;;22.10;92.30;;;;;;6053900;23;20928;-86
2023/09/15 21:24:10;;;;;;;;;;;;;;;;;;;;;
2023/09/15 21:26:57;;;;;;;3.60;3.30;;;22.10;92.10;;;;;;6092777;23;20440;-85
2023/09/15 21:29:54;;;;;;;3.80;3.20;;;22.00;92.10;;;;;;6089858;23;20852;-86
2023/09/15 21:32:52;;;;;;;6.07;4.13;;;22.10;91.90;;;;;;6083606;23;20415;-86
2023/09/15 21:35:56;;;;;;;3.97;3.50;;;22.00;91.90;;;;;;6089212;23;20454;-86
2023/09/15 21:38:54;;;;;;;3.37;3.17;;;21.90;92.30;;;;;;6116652;23;20396;-85
2023/09/15 21:41:47;;;;;;;4.00;3.50;;;21.90;92.40;;;;;;6191145;23;20432;-87
2023/09/15 21:44:51;;;;;;;3.63;3.33;;;21.90;92.60;;;;;;6204438;23;20421;-86
2023/09/15 21:47:40;;;;;;;3.57;3.23;;;21.90;92.60;;;;;;6203786;23;20416;-86
2023/09/15 21:50:37;;;;;;;3.70;3.00;;;21.90;92.80;;;;;;6221071;23;20474;-86
2023/09/15 21:56:46;;;;;;;3.10;2.90;;;21.90;92.30;;;;;;6147862;23;20406;-85
2023/09/15 21:59:33;;;;;;;4.07;3.77;;;21.70;92.50;;;;;;6179068;23;20437;-87
2023/09/15 22:02:39;;;;;;;3.70;3.40;;;21.80;92.60;;;;;;6160668;23;20929;-87
2023/09/15 22:05:31;;;;;;;5.33;3.77;;;21.90;92.50;;;;;;6174379;23;20493;-88
2023/09/15 22:08:48;;;;;;;5.50;3.63;;;21.80;92.30;;;;;;6145087;23;20405;-88
2023/09/15 22:15:13;;;;;;;3.93;3.60;;;21.60;93.00;;;;;;6182820;23;21017;-87
2023/09/15 22:21:09;;;;;;;3.60;3.30;;;21.50;93.10;;;;;;6201365;23;20424;-86
2023/09/15 22:27:18;;;;;;;;;;;;;;;;;;;;;
2023/09/15 22:30:15;;;;;;;4.50;3.97;;;21.50;92.80;;;;;;6073640;23;20406;-85
2023/09/15 22:33:33;;;;;;;4.10;3.77;;;21.50;92.80;;;;;;6052057;23;20432;-86
2023/09/15 22:36:53;;;;;;;4.07;3.70;;;21.40;93.20;;;;;;5975303;23;20476;-85
2023/09/15 22:39:56;;;;;;;4.30;3.90;;;21.30;93.60;;;;;;6057878;23;20425;-86
2023/09/15 22:46:01;;;;;;;4.20;3.50;;;21.40;93.80;;;;;;6072528;23;20468;-85
2023/09/15 22:49:17;;;;;;;6.33;4.93;;;21.40;93.20;;;;;;6059078;23;20389;-85
2023/09/15 22:52:18;;;;;;;4.00;3.70;;;21.20;92.50;;;;;;6054875;23;20429;-86
2023/09/15 22:55:34;;;;;;;3.87;3.47;;;21.10;92.70;;;;;;6060269;23;20434;-85
2023/09/15 22:59:53;;;;;;;3.53;3.20;;;21.00;93.10;;;;;;5141781;27;20525;-86
2023/09/15 23:02:53;;;;;;;3.90;3.53;;;21.00;93.30;;;;;;4974105;28;20552;-85
2023/09/15 23:06:33;;;;;;;3.97;3.50;;;21.10;93.10;;;;;;5106546;28;20489;-87
2023/09/15 23:09:33;;;;;;;3.70;3.40;;;21.10;92.60;;;;;;4988568;28;21011;-86
2023/09/15 23:16:14;;;;;;;4.30;3.50;;;21.10;92.60;;;;;;5069177;28;20453;-86
2023/09/15 23:19:34;;;;;;;3.40;3.10;;;21.30;92.40;;;;;;5085875;28;20456;-87
2023/09/15 23:22:34;;;;;;;3.60;3.30;;;21.30;92.40;;;;;;5113335;28;20443;-86
2023/09/15 23:25:45;;;;;;;3.60;3.30;;;21.20;92.20;;;;;;5114969;28;20467;-86
2023/09/15 23:29:18;;;;;;;3.40;3.10;;;21.00;92.50;;;;;;5107336;28;20525;-86
2023/09/15 23:32:05;;;;;;;3.53;3.27;;;21.20;92.30;;;;;;5114650;28;20458;-87
2023/09/15 23:35:10;;;;;;;4.17;3.77;;;21.20;92.80;;;;;;5114412;28;20494;-86
2023/09/15 23:38:12;;;;;;;4.10;3.70;;;21.10;92.60;;;;;;5109432;28;20504;-86
2023/09/15 23:40:58;;;;;;;4.33;3.33;;;21.00;93.00;;;;;;5110616;28;20451;-86
2023/09/15 23:47:16;;;;;;;4.07;3.23;;;21.10;93.00;;;;;;5126021;28;20456;-85
2023/09/15 23:50:58;;;;;;;4.93;3.20;;;21.30;92.30;;;;;;5077665;28;20474;-86
2023/09/15 23:53:57;;;;;;;3.47;3.17;;;21.30;92.50;;;;;;5065799;28;20859;-86
2023/09/15 23:56:45;;;;;;;;;;;;;;;;;;;;;
2023/09/15 23:59:45;;;;;;;4.03;3.63;;;21.20;92.30;;;;;;5094524;28;20471;-86
